Time;durP1;ratioP1;P1;durP2;ratioP2;P2;SDS_P1;SDS_P2;PMS_P1;PMS_P2;Temp;Humidity;BMP_temperature;BMP_pressure;BME280_temperature;BME280_humidity;BME280_pressure;Samples;Min_cycle;Max_cycle;Signal;HPM_P1;HPM_P2
2022/05/17 00:01:22;;;;;;;4.53;3.53;;;;;;;;;;4992915;28;20272;-79
2022/05/17 00:03:47;;;;;;;6.63;4.33;;;;;;;;;;4992387;28;20180;-79
2022/05/17 00:06:12;;;;;;;6.00;3.33;;;;;;;;;;4992498;28;20196;-79
2022/05/17 00:08:39;;;;;;;4.70;3.37;;;;;;;;;;4992113;28;20186;-78
2022/05/17 00:11:06;;;;;;;4.07;3.40;;;;;;;;;;4989943;28;20189;-79
2022/05/17 00:13:31;;;;;;;4.13;3.63;;;;;;;;;;4991334;28;20180;-79
2022/05/17 00:15:56;;;;;;;3.87;3.57;;;;;;;;;;4992719;28;20186;-79
2022/05/17 00:18:23;;;;;;;4.20;3.80;;;;;;;;;;4991346;28;20214;-79
2022/05/17 00:20:49;;;;;;;4.30;3.67;;;;;;;;;;4990426;28;20207;-79
2022/05/17 00:23:15;;;;;;;6.40;3.97;;;;;;;;;;4992119;28;20188;-78
2022/05/17 00:25:41;;;;;;;6.20;4.37;;;;;;;;;;4991323;28;20210;-79
2022/05/17 00:28:06;;;;;;;6.30;3.73;;;;;;;;;;4991518;28;20179;-79
2022/05/17 00:30:32;;;;;;;4.03;3.63;;;;;;;;;;4992586;28;20194;-79
2022/05/17 00:32:57;;;;;;;4.97;3.70;;;;;;;;;;4991777;28;20207;-79
2022/05/17 00:35:22;;;;;;;4.23;3.80;;;;;;;;;;4989256;28;20243;-79
2022/05/17 00:37:47;;;;;;;4.43;3.50;;;;;;;;;;4988040;28;20211;-79
2022/05/17 00:40:14;;;;;;;5.73;4.23;;;;;;;;;;4991067;28;20182;-79
2022/05/17 00:42:39;;;;;;;5.50;3.83;;;;;;;;;;4992625;28;20269;-79
2022/05/17 00:45:07;;;;;;;4.80;4.20;;;;;;;;;;4992304;28;20179;-78
2022/05/17 00:47:35;;;;;;;8.57;4.60;;;;;;;;;;5008515;28;20191;-78
2022/05/17 00:50:19;;;;;;;4.60;3.73;;;;;;;;;;4989283;28;20191;-79
2022/05/17 00:52:54;;;;;;;6.07;4.27;;;;;;;;;;4989840;28;20187;-79
2022/05/17 00:55:28;;;;;;;5.63;4.40;;;;;;;;;;5006620;28;20194;-79
2022/05/17 00:57:57;;;;;;;4.50;3.67;;;;;;;;;;4993314;28;20200;-79
2022/05/17 01:00:25;;;;;;;6.17;3.70;;;;;;;;;;4999814;28;20274;-79
2022/05/17 01:02:54;;;;;;;4.73;4.23;;;;;;;;;;4991366;28;20203;-79
2022/05/17 01:05:22;;;;;;;5.27;4.77;;;;;;;;;;4989472;28;20190;-79
2022/05/17 01:07:51;;;;;;;9.83;4.87;;;;;;;;;;4990849;28;20190;-79
2022/05/17 01:10:16;;;;;;;5.77;4.63;;;;;;;;;;5004349;28;20306;-79
2022/05/17 01:12:41;;;;;;;6.50;5.53;;;;;;;;;;4991816;28;20350;-79
2022/05/17 01:15:07;;;;;;;5.80;5.10;;;;;;;;;;4990720;28;20182;-78
2022/05/17 01:17:34;;;;;;;6.13;5.07;;;;;;;;;;4991554;28;20218;-79
2022/05/17 01:20:00;;;;;;;6.60;5.30;;;;;;;;;;4989098;28;20187;-79
2022/05/17 01:22:26;;;;;;;5.30;4.80;;;;;;;;;;4991384;28;20185;-79
2022/05/17 01:24:51;;;;;;;5.53;4.80;;;;;;;;;;4991052;28;20186;-79
2022/05/17 01:27:26;;;;;;;9.23;5.47;;;;;;;;;;4990454;28;20284;-79
2022/05/17 01:29:51;;;;;;;6.77;5.37;;;;;;;;;;4990914;28;20205;-79
2022/05/17 01:32:17;;;;;;;5.67;4.97;;;;;;;;;;4990634;28;20203;-80
2022/05/17 01:34:43;;;;;;;8.13;5.27;;;;;;;;;;4987933;28;20222;-79
2022/05/17 01:37:08;;;;;;;5.37;4.80;;;;;;;;;;4990622;28;20215;-79
2022/05/17 01:39:34;;;;;;;6.37;5.27;;;;;;;;;;4997234;28;20191;-79
2022/05/17 01:41:59;;;;;;;6.20;4.73;;;;;;;;;;4989551;28;20289;-79
2022/05/17 01:44:25;;;;;;;6.00;4.90;;;;;;;;;;4990109;28;20174;-79
2022/05/17 01:46:51;;;;;;;8.33;5.40;;;;;;;;;;4989060;28;20191;-79
2022/05/17 01:49:16;;;;;;;6.77;5.90;;;;;;;;;;4989275;28;20190;-79
2022/05/17 01:51:41;;;;;;;7.83;5.70;;;;;;;;;;4990497;28;20178;-79
2022/05/17 01:54:07;;;;;;;5.63;5.07;;;;;;;;;;4985703;28;20189;-79
2022/05/17 01:56:33;;;;;;;7.23;5.77;;;;;;;;;;4990080;28;20182;-78
2022/05/17 01:58:59;;;;;;;8.87;5.57;;;;;;;;;;4988764;28;20520;-79
2022/05/17 02:01:24;;;;;;;8.63;5.70;;;;;;;;;;4990635;28;20186;-80
2022/05/17 02:03:49;;;;;;;8.53;5.67;;;;;;;;;;4992490;28;20183;-78
2022/05/17 02:06:14;;;;;;;6.70;5.67;;;;;;;;;;4989643;28;20182;-78
2022/05/17 02:08:40;;;;;;;7.97;5.53;;;;;;;;;;4991668;28;20225;-79
2022/05/17 02:11:05;;;;;;;10.17;6.33;;;;;;;;;;4991163;28;20241;-79
2022/05/17 02:13:30;;;;;;;5.37;4.63;;;;;;;;;;4988790;28;20243;-80
2022/05/17 02:15:56;;;;;;;8.27;5.63;;;;;;;;;;4988373;28;20194;-79
2022/05/17 02:18:21;;;;;;;6.20;5.17;;;;;;;;;;4990763;28;20207;-79
2022/05/17 02:20:49;;;;;;;7.10;6.40;;;;;;;;;;4990582;28;20178;-78
2022/05/17 02:23:14;;;;;;;7.70;5.53;;;;;;;;;;4989145;28;20245;-79
2022/05/17 02:25:39;;;;;;;7.03;6.20;;;;;;;;;;4990384;28;20286;-80
2022/05/17 02:28:05;;;;;;;6.60;5.90;;;;;;;;;;4992202;28;20207;-76
2022/05/17 02:30:31;;;;;;;6.37;5.77;;;;;;;;;;4989957;28;20194;-78
2022/05/17 02:32:57;;;;;;;6.97;5.90;;;;;;;;;;4990383;28;20206;-79
2022/05/17 02:35:22;;;;;;;6.67;5.73;;;;;;;;;;4990426;28;20529;-80
2022/05/17 02:37:48;;;;;;;8.03;6.60;;;;;;;;;;4988941;28;20201;-80
2022/05/17 02:40:13;;;;;;;6.47;5.87;;;;;;;;;;4989836;28;20186;-79
2022/05/17 02:42:38;;;;;;;7.07;6.43;;;;;;;;;;4996319;28;20190;-80
2022/05/17 02:45:04;;;;;;;7.50;6.43;;;;;;;;;;4988821;28;20184;-79
2022/05/17 02:47:29;;;;;;;7.63;6.57;;;;;;;;;;4988386;28;20187;-78
2022/05/17 02:49:54;;;;;;;6.97;6.10;;;;;;;;;;4991075;28;20195;-79
2022/05/17 02:52:19;;;;;;;6.23;5.50;;;;;;;;;;4992567;28;20187;-79
2022/05/17 02:54:45;;;;;;;8.33;6.10;;;;;;;;;;4993501;28;20307;-79
2022/05/17 02:57:10;;;;;;;9.53;6.23;;;;;;;;;;4992121;28;20488;-79
2022/05/17 02:59:35;;;;;;;8.57;6.57;;;;;;;;;;4997304;28;20179;-79
2022/05/17 03:02:01;;;;;;;7.23;6.03;;;;;;;;;;4990795;28;20183;-80
2022/05/17 03:04:27;;;;;;;7.97;6.30;;;;;;;;;;4993178;28;20175;-80
2022/05/17 03:06:53;;;;;;;10.23;7.43;;;;;;;;;;4993753;28;20246;-80
2022/05/17 03:09:18;;;;;;;8.83;6.57;;;;;;;;;;4992233;28;20222;-79
2022/05/17 03:11:43;;;;;;;8.30;7.37;;;;;;;;;;4992451;28;20179;-79
2022/05/17 03:14:09;;;;;;;8.60;6.37;;;;;;;;;;4993320;28;20182;-79
2022/05/17 03:16:35;;;;;;;7.53;6.07;;;;;;;;;;4993352;28;20185;-79
2022/05/17 03:19:00;;;;;;;8.30;7.00;;;;;;;;;;4991623;28;20202;-79
2022/05/17 03:21:26;;;;;;;8.77;7.10;;;;;;;;;;4990998;28;20175;-79
2022/05/17 03:23:51;;;;;;;9.70;6.43;;;;;;;;;;4991261;28;20190;-79
2022/05/17 03:26:16;;;;;;;7.97;6.53;;;;;;;;;;4994766;28;20276;-78
2022/05/17 03:28:41;;;;;;;6.90;5.93;;;;;;;;;;4994002;28;20183;-79
2022/05/17 03:31:07;;;;;;;7.77;6.10;;;;;;;;;;4992236;28;20274;-79
2022/05/17 03:33:33;;;;;;;6.43;5.83;;;;;;;;;;4992856;28;20238;-79
2022/05/17 03:35:58;;;;;;;7.80;6.00;;;;;;;;;;4991709;28;20182;-79
2022/05/17 03:38:23;;;;;;;6.60;6.00;;;;;;;;;;4992085;28;20213;-79
2022/05/17 03:40:50;;;;;;;7.83;6.77;;;;;;;;;;4993475;28;20262;-79
2022/05/17 03:43:16;;;;;;;10.23;7.30;;;;;;;;;;4991699;28;20552;-79
2022/05/17 03:45:41;;;;;;;8.80;7.30;;;;;;;;;;4991629;28;20299;-78
2022/05/17 03:48:06;;;;;;;7.80;6.93;;;;;;;;;;4992971;28;20186;-80
2022/05/17 03:50:31;;;;;;;8.90;7.10;;;;;;;;;;4992602;28;20191;-79
2022/05/17 03:52:57;;;;;;;8.97;6.70;;;;;;;;;;4987851;28;20187;-80
2022/05/17 03:55:22;;;;;;;9.20;7.40;;;;;;;;;;4990887;28;20192;-79
2022/05/17 03:57:47;;;;;;;8.73;7.53;;;;;;;;;;4990915;28;20228;-79
2022/05/17 04:00:13;;;;;;;9.10;6.60;;;;;;;;;;4991561;28;20242;-80
2022/05/17 04:02:38;;;;;;;9.50;7.80;;;;;;;;;;4990750;28;20181;-79
2022/05/17 04:05:04;;;;;;;7.63;6.57;;;;;;;;;;4986981;28;20213;-79
2022/05/17 04:07:29;;;;;;;10.47;7.67;;;;;;;;;;4990866;28;20315;-80
2022/05/17 04:09:55;;;;;;;9.03;6.80;;;;;;;;;;4993321;28;20180;-79
2022/05/17 04:12:20;;;;;;;9.00;7.40;;;;;;;;;;4990699;28;20221;-79
2022/05/17 04:14:45;;;;;;;12.33;6.83;;;;;;;;;;4984186;28;20187;-79
2022/05/17 04:17:10;;;;;;;11.70;7.43;;;;;;;;;;4991646;28;20210;-80
2022/05/17 04:19:36;;;;;;;9.80;7.40;;;;;;;;;;4990179;28;20176;-79
2022/05/17 04:22:05;;;;;;;7.50;6.73;;;;;;;;;;4992424;28;20190;-79
2022/05/17 04:24:31;;;;;;;9.00;7.23;;;;;;;;;;5004916;28;20188;-79
2022/05/17 04:26:56;;;;;;;9.40;7.77;;;;;;;;;;4992750;28;20185;-79
2022/05/17 04:29:22;;;;;;;9.30;7.03;;;;;;;;;;4990308;28;20182;-79
2022/05/17 04:31:47;;;;;;;7.67;6.37;;;;;;;;;;4989985;28;20178;-79
2022/05/17 04:34:13;;;;;;;9.00;6.83;;;;;;;;;;4990034;28;20234;-80
2022/05/17 04:36:38;;;;;;;8.00;7.30;;;;;;;;;;4990387;28;20177;-79
2022/05/17 04:39:04;;;;;;;9.83;6.90;;;;;;;;;;4991893;28;21682;-79
2022/05/17 04:41:29;;;;;;;13.00;9.23;;;;;;;;;;4989537;28;20200;-79
2022/05/17 04:43:54;;;;;;;8.33;7.53;;;;;;;;;;4991683;28;20184;-79
2022/05/17 04:46:20;;;;;;;10.40;6.73;;;;;;;;;;4991469;28;20227;-79
2022/05/17 04:48:45;;;;;;;12.60;7.10;;;;;;;;;;4992069;28;20183;-80
2022/05/17 04:51:11;;;;;;;9.43;7.40;;;;;;;;;;4990512;28;20181;-77
2022/05/17 04:53:37;;;;;;;8.30;7.43;;;;;;;;;;5005011;28;20186;-78
2022/05/17 04:56:03;;;;;;;8.00;6.93;;;;;;;;;;4990849;28;20193;-79
2022/05/17 04:58:28;;;;;;;8.37;7.57;;;;;;;;;;4989561;28;20283;-78
2022/05/17 05:00:53;;;;;;;7.63;6.93;;;;;;;;;;4989232;28;20192;-80
2022/05/17 05:03:19;;;;;;;7.57;6.77;;;;;;;;;;4992580;28;20178;-79
2022/05/17 05:05:44;;;;;;;9.93;7.37;;;;;;;;;;4991165;28;20267;-79
2022/05/17 05:08:09;;;;;;;6.67;6.07;;;;;;;;;;4992357;28;20178;-79
2022/05/17 05:10:34;;;;;;;12.63;7.80;;;;;;;;;;4991668;28;20221;-78
2022/05/17 05:13:00;;;;;;;10.33;7.77;;;;;;;;;;4991355;28;20194;-79
2022/05/17 05:15:25;;;;;;;8.17;7.37;;;;;;;;;;4992103;28;20191;-79
2022/05/17 05:17:50;;;;;;;9.07;8.10;;;;;;;;;;4991651;28;20232;-79
2022/05/17 05:20:16;;;;;;;9.00;7.83;;;;;;;;;;4992141;28;20241;-79
2022/05/17 05:22:41;;;;;;;12.43;7.97;;;;;;;;;;4991009;28;20182;-79
2022/05/17 05:25:07;;;;;;;8.30;7.27;;;;;;;;;;4990773;28;20281;-79
2022/05/17 05:27:32;;;;;;;8.73;7.43;;;;;;;;;;4999251;28;20257;-80
2022/05/17 05:29:58;;;;;;;8.17;7.33;;;;;;;;;;4990634;28;20183;-79
2022/05/17 05:32:24;;;;;;;10.30;7.17;;;;;;;;;;4991885;28;20208;-79
2022/05/17 05:34:49;;;;;;;7.47;6.73;;;;;;;;;;4991181;28;20284;-79
2022/05/17 05:37:14;;;;;;;9.20;6.30;;;;;;;;;;4984080;28;20208;-79
2022/05/17 05:39:39;;;;;;;8.03;6.87;;;;;;;;;;4997544;28;20175;-78
2022/05/17 05:42:05;;;;;;;9.43;6.53;;;;;;;;;;4991666;28;20180;-79
2022/05/17 05:44:32;;;;;;;7.67;6.73;;;;;;;;;;4992142;28;20190;-79
2022/05/17 05:46:57;;;;;;;8.50;7.13;;;;;;;;;;4990248;28;20184;-78
2022/05/17 05:49:23;;;;;;;8.87;6.77;;;;;;;;;;4991579;28;20186;-79
2022/05/17 05:51:48;;;;;;;7.03;6.33;;;;;;;;;;4988034;28;20206;-79
2022/05/17 05:54:13;;;;;;;6.97;6.20;;;;;;;;;;4990794;28;20190;-79
2022/05/17 05:56:38;;;;;;;8.07;6.23;;;;;;;;;;4991681;28;20186;-79
2022/05/17 05:59:04;;;;;;;9.20;7.30;;;;;;;;;;4990800;28;20265;-79
2022/05/17 06:01:30;;;;;;;8.27;5.90;;;;;;;;;;4990372;28;20240;-78
2022/05/17 06:03:55;;;;;;;8.93;6.17;;;;;;;;;;4991962;28;20171;-79
2022/05/17 06:06:20;;;;;;;8.20;6.53;;;;;;;;;;4989677;28;20188;-79
2022/05/17 06:08:45;;;;;;;7.87;5.80;;;;;;;;;;4990797;28;20210;-79
2022/05/17 06:11:11;;;;;;;15.90;6.80;;;;;;;;;;4991898;28;20242;-79
2022/05/17 06:13:36;;;;;;;6.50;5.97;;;;;;;;;;4990682;28;20230;-79
2022/05/17 06:16:02;;;;;;;13.73;8.00;;;;;;;;;;4991632;28;20238;-79
2022/05/17 06:18:27;;;;;;;12.57;5.73;;;;;;;;;;4990621;28;20201;-79
2022/05/17 06:20:54;;;;;;;7.63;5.47;;;;;;;;;;4988957;28;20187;-78
2022/05/17 06:23:20;;;;;;;7.63;5.33;;;;;;;;;;4989315;28;20319;-79
2022/05/17 06:25:46;;;;;;;6.47;5.77;;;;;;;;;;4991641;28;20268;-79
2022/05/17 06:28:11;;;;;;;10.80;5.97;;;;;;;;;;4994258;28;20188;-79
2022/05/17 06:30:37;;;;;;;9.53;6.77;;;;;;;;;;4993829;28;20189;-78
2022/05/17 06:33:02;;;;;;;13.87;6.30;;;;;;;;;;4993626;28;20204;-79
2022/05/17 06:35:28;;;;;;;8.60;5.87;;;;;;;;;;4992928;28;20224;-78
2022/05/17 06:37:53;;;;;;;7.47;5.93;;;;;;;;;;4993946;28;20219;-79
2022/05/17 06:40:18;;;;;;;5.63;5.13;;;;;;;;;;4986651;28;20182;-79
2022/05/17 06:42:44;;;;;;;6.20;5.60;;;;;;;;;;4993719;28;20179;-79
2022/05/17 06:45:11;;;;;;;7.10;5.77;;;;;;;;;;4993036;28;20201;-78
2022/05/17 06:47:36;;;;;;;7.60;5.20;;;;;;;;;;4992073;28;20183;-79
2022/05/17 06:50:01;;;;;;;5.90;5.17;;;;;;;;;;4994748;28;20202;-79
2022/05/17 06:52:28;;;;;;;8.50;6.00;;;;;;;;;;4993179;28;20287;-78
2022/05/17 06:54:53;;;;;;;14.07;9.97;;;;;;;;;;4993501;28;20219;-79
2022/05/17 06:57:18;;;;;;;13.43;10.13;;;;;;;;;;4993579;28;20224;-79
2022/05/17 06:59:44;;;;;;;17.57;9.37;;;;;;;;;;5012155;28;20196;-78
2022/05/17 07:02:09;;;;;;;19.60;11.53;;;;;;;;;;4991474;28;20215;-79
2022/05/17 07:04:35;;;;;;;11.93;10.73;;;;;;;;;;4993385;28;20179;-78
2022/05/17 07:07:01;;;;;;;10.87;9.87;;;;;;;;;;4993351;28;20183;-78
2022/05/17 07:09:26;;;;;;;6.97;6.27;;;;;;;;;;4993259;28;20202;-78
2022/05/17 07:14:39;;;;;;;6.67;5.97;;;;;;;;;;4992098;28;20225;-78
2022/05/17 07:17:05;;;;;;;6.67;6.07;;;;;;;;;;4994309;28;20273;-78
2022/05/17 07:19:31;;;;;;;6.93;6.27;;;;;;;;;;4990779;28;20203;-79
2022/05/17 07:21:57;;;;;;;8.70;6.27;;;;;;;;;;4993546;28;20183;-79
2022/05/17 07:24:22;;;;;;;8.93;6.00;;;;;;;;;;4997696;28;20241;-77
2022/05/17 07:26:47;;;;;;;7.00;5.20;;;;;;;;;;4994327;28;20179;-79
2022/05/17 07:29:12;;;;;;;5.87;5.27;;;;;;;;;;4993048;28;20187;-77
2022/05/17 07:31:37;;;;;;;7.83;5.77;;;;;;;;;;4993256;28;20213;-79
2022/05/17 07:34:03;;;;;;;6.00;5.40;;;;;;;;;;4993116;28;20235;-77
2022/05/17 07:36:28;;;;;;;5.97;4.90;;;;;;;;;;4991868;28;20184;-78
2022/05/17 07:38:54;;;;;;;6.23;4.73;;;;;;;;;;4983769;28;20287;-78
2022/05/17 07:41:19;;;;;;;6.33;4.97;;;;;;;;;;4994913;28;20175;-79
2022/05/17 07:43:44;;;;;;;5.00;3.97;;;;;;;;;;4992907;28;20332;-78
2022/05/17 07:46:09;;;;;;;5.90;4.47;;;;;;;;;;4991471;28;20185;-79
2022/05/17 07:48:35;;;;;;;7.43;4.10;;;;;;;;;;5007301;28;20225;-79
2022/05/17 07:51:00;;;;;;;5.87;4.47;;;;;;;;;;4993095;28;20283;-78
2022/05/17 07:53:26;;;;;;;5.43;3.37;;;;;;;;;;4992406;28;20274;-78
2022/05/17 07:55:51;;;;;;;5.10;4.53;;;;;;;;;;5006492;28;20236;-78
2022/05/17 07:58:17;;;;;;;4.87;3.60;;;;;;;;;;4991211;28;20209;-79
2022/05/17 08:00:42;;;;;;;4.13;3.10;;;;;;;;;;4988869;28;20186;-78
2022/05/17 08:03:09;;;;;;;4.73;3.87;;;;;;;;;;4987430;28;20185;-79
2022/05/17 08:05:34;;;;;;;4.13;3.50;;;;;;;;;;4991771;28;20209;-78
2022/05/17 08:08:00;;;;;;;3.50;3.20;;;;;;;;;;4992439;28;20208;-78
2022/05/17 08:10:26;;;;;;;4.33;3.93;;;;;;;;;;4991495;28;20206;-78
2022/05/17 08:12:52;;;;;;;4.27;3.87;;;;;;;;;;4992057;28;20268;-78
2022/05/17 08:15:18;;;;;;;6.70;3.97;;;;;;;;;;4992573;28;20251;-78
2022/05/17 08:17:43;;;;;;;3.67;3.37;;;;;;;;;;4992502;28;20231;-79
2022/05/17 08:20:09;;;;;;;5.97;3.57;;;;;;;;;;4991946;28;20177;-78
2022/05/17 08:22:44;;;;;;;4.33;3.30;;;;;;;;;;4993538;28;20178;-79
2022/05/17 08:27:55;;;;;;;5.57;3.50;;;;;;;;;;4993260;28;20250;-79
2022/05/17 08:30:21;;;;;;;4.40;3.87;;;;;;;;;;4989202;28;20181;-78
2022/05/17 08:35:55;;;;;;;5.73;3.63;;;;;;;;;;4990980;28;20231;-78
2022/05/17 08:38:27;;;;;;;5.33;4.00;;;;;;;;;;4998485;28;20308;-78
2022/05/17 08:40:58;;;;;;;4.87;3.77;;;;;;;;;;4992903;28;20185;-77
2022/05/17 08:43:29;;;;;;;3.80;3.40;;;;;;;;;;4992036;28;20186;-78
2022/05/17 08:46:13;;;;;;;5.33;4.00;;;;;;;;;;4992579;28;20266;-78
2022/05/17 08:48:59;;;;;;;4.53;3.63;;;;;;;;;;4992293;28;20191;-78
2022/05/17 08:51:28;;;;;;;5.27;3.80;;;;;;;;;;4991208;28;20199;-77
2022/05/17 08:53:53;;;;;;;4.17;3.77;;;;;;;;;;4995493;28;20191;-78
2022/05/17 08:56:18;;;;;;;6.10;4.87;;;;;;;;;;4998027;28;20191;-77
2022/05/17 08:58:45;;;;;;;4.00;3.60;;;;;;;;;;4991155;28;20265;-78
2022/05/17 09:01:20;;;;;;;6.40;4.20;;;;;;;;;;4992734;28;20182;-78
2022/05/17 09:04:00;;;;;;;8.73;4.70;;;;;;;;;;4990885;28;20178;-78
2022/05/17 09:06:35;;;;;;;5.37;3.50;;;;;;;;;;4990614;28;20181;-79
2022/05/17 09:09:04;;;;;;;6.30;4.23;;;;;;;;;;4991522;28;20209;-78
2022/05/17 09:11:48;;;;;;;4.43;3.57;;;;;;;;;;4999996;28;20181;-79
2022/05/17 09:14:22;;;;;;;5.67;4.20;;;;;;;;;;4991467;28;20267;-79
2022/05/17 09:17:07;;;;;;;6.03;3.87;;;;;;;;;;4991491;28;20185;-78
2022/05/17 09:19:33;;;;;;;3.60;3.30;;;;;;;;;;5005943;28;20528;-79
2022/05/17 09:22:02;;;;;;;4.70;3.67;;;;;;;;;;4991149;28;20282;-79
2022/05/17 09:24:30;;;;;;;4.60;4.00;;;;;;;;;;4990850;28;20222;-78
2022/05/17 09:27:04;;;;;;;3.63;3.33;;;;;;;;;;4987556;28;20196;-79
2022/05/17 09:29:30;;;;;;;4.30;3.80;;;;;;;;;;4991929;28;20180;-78
2022/05/17 09:31:59;;;;;;;3.40;3.10;;;;;;;;;;4990965;28;20192;-78
2022/05/17 09:34:32;;;;;;;4.43;3.67;;;;;;;;;;4988872;28;20243;-78
2022/05/17 09:37:02;;;;;;;4.03;3.63;;;;;;;;;;4992945;28;20185;-78
2022/05/17 09:39:27;;;;;;;5.37;3.80;;;;;;;;;;5007136;28;20218;-78
2022/05/17 09:41:57;;;;;;;5.83;4.00;;;;;;;;;;4994386;28;20211;-78
2022/05/17 09:44:24;;;;;;;4.87;4.40;;;;;;;;;;4991604;28;20179;-78
2022/05/17 09:46:50;;;;;;;5.20;3.57;;;;;;;;;;4989764;28;20186;-79
2022/05/17 09:55:12;;;;;;;6.50;3.43;;;;;;;;;;4988011;28;20189;-78
2022/05/17 09:57:50;;;;;;;5.60;3.80;;;;;;;;;;5006112;28;20267;-77
2022/05/17 10:00:20;;;;;;;3.50;3.20;;;;;;;;;;4989909;28;20184;-78
2022/05/17 10:02:49;;;;;;;3.33;3.00;;;;;;;;;;4989172;28;20183;-78
2022/05/17 10:05:32;;;;;;;3.93;3.17;;;;;;;;;;4990267;28;20197;-78
2022/05/17 10:08:03;;;;;;;5.80;3.10;;;;;;;;;;4987778;28;20197;-77
2022/05/17 10:10:29;;;;;;;3.30;3.10;;;;;;;;;;4990508;28;20189;-78
2022/05/17 10:12:56;;;;;;;3.93;3.13;;;;;;;;;;4990447;28;20195;-78
2022/05/17 10:15:22;;;;;;;5.90;4.03;;;;;;;;;;4988957;28;20180;-79
2022/05/17 10:17:56;;;;;;;3.63;3.33;;;;;;;;;;4988932;28;20210;-79
2022/05/17 10:20:30;;;;;;;5.00;3.40;;;;;;;;;;5004898;28;20397;-79
2022/05/17 10:23:13;;;;;;;4.23;3.20;;;;;;;;;;4991032;28;20189;-78
2022/05/17 10:25:39;;;;;;;3.50;3.05;;;;;;;;;;4988097;28;20182;-77
2022/05/17 10:28:13;;;;;;;4.90;2.90;;;;;;;;;;4990627;28;20191;-78
2022/05/17 10:30:42;;;;;;;5.90;3.93;;;;;;;;;;4988091;28;20184;-79
2022/05/17 10:33:14;;;;;;;4.20;3.20;;;;;;;;;;4990361;28;20199;-78
2022/05/17 10:35:39;;;;;;;4.60;3.30;;;;;;;;;;4998102;28;20258;-78
2022/05/17 10:38:10;;;;;;;4.10;3.03;;;;;;;;;;4991749;28;20296;-77
2022/05/17 10:40:43;;;;;;;3.20;2.90;;;;;;;;;;4993635;28;20422;-78
2022/05/17 10:43:09;;;;;;;4.32;3.65;;;;;;;;;;4989172;28;20184;-78
2022/05/17 10:45:35;;;;;;;5.68;3.30;;;;;;;;;;4990789;28;20173;-78
2022/05/17 10:48:11;;;;;;;2.88;2.60;;;;;;;;;;4991564;28;20176;-78
2022/05/17 10:50:55;;;;;;;4.70;2.90;;;;;;;;;;4990760;28;20180;-78
2022/05/17 10:53:23;;;;;;;5.20;3.30;;;;;;;;;;4990860;28;20176;-78
2022/05/17 10:55:55;;;;;;;3.33;3.03;;;;;;;;;;4995231;28;20234;-78
2022/05/17 10:58:36;;;;;;;3.45;2.90;;;;;;;;;;4990463;28;20204;-78
2022/05/17 11:01:24;;;;;;;6.82;3.13;;;;;;;;;;5004479;28;20180;-78
2022/05/17 11:03:49;;;;;;;3.40;2.83;;;;;;;;;;4985010;28;20195;-78
2022/05/17 11:06:21;;;;;;;3.13;2.83;;;;;;;;;;4988738;28;20180;-78
2022/05/17 11:09:08;;;;;;;3.70;3.40;;;;;;;;;;4991668;28;20172;-78
2022/05/17 11:11:37;;;;;;;3.58;2.63;;;;;;;;;;4984500;28;20176;-78
2022/05/17 11:14:25;;;;;;;3.15;2.80;;;;;;;;;;4993709;28;20198;-77
2022/05/17 11:16:53;;;;;;;3.10;2.88;;;;;;;;;;4988470;28;20184;-78
2022/05/17 11:19:24;;;;;;;2.78;2.58;;;;;;;;;;4992365;28;20227;-78
2022/05/17 11:22:08;;;;;;;5.93;3.10;;;;;;;;;;4993546;28;20179;-78
2022/05/17 11:24:53;;;;;;;4.40;2.80;;;;;;;;;;5004462;28;20239;-78
2022/05/17 11:27:18;;;;;;;5.22;2.85;;;;;;;;;;5008411;28;20176;-78
2022/05/17 11:29:52;;;;;;;10.77;3.75;;;;;;;;;;4993516;28;20263;-78
2022/05/17 11:32:23;;;;;;;4.28;2.92;;;;;;;;;;4993430;28;20191;-78
2022/05/17 11:34:48;;;;;;;6.57;3.17;;;;;;;;;;4994237;28;20258;-77
2022/05/17 11:37:41;;;;;;;5.82;3.33;;;;;;;;;;4986526;28;20196;-78
2022/05/17 11:40:08;;;;;;;2.92;2.40;;;;;;;;;;4989916;28;20191;-78
2022/05/17 11:42:33;;;;;;;4.40;3.22;;;;;;;;;;4993504;28;20183;-78
2022/05/17 11:45:19;;;;;;;3.22;2.92;;;;;;;;;;4997746;28;20176;-77
2022/05/17 11:47:58;;;;;;;4.65;3.10;;;;;;;;;;5108845;27;20530;-76
2022/05/17 11:50:29;;;;;;;4.85;3.20;;;;;;;;;;5107141;28;20263;-77
2022/05/17 11:52:56;;;;;;;4.60;2.65;;;;;;;;;;5105622;28;20168;-77
2022/05/17 11:55:26;;;;;;;5.63;2.90;;;;;;;;;;5107529;28;20180;-76
2022/05/17 11:57:51;;;;;;;4.50;2.60;;;;;;;;;;5108593;28;20183;-76
2022/05/17 12:00:22;;;;;;;11.23;4.18;;;;;;;;;;5106341;28;20184;-77
2022/05/17 12:02:49;;;;;;;15.38;3.80;;;;;;;;;;5097835;28;20195;-76
2022/05/17 12:05:33;;;;;;;2.63;2.42;;;;;;;;;;5099571;28;20188;-77
2022/05/17 12:08:17;;;;;;;10.57;3.38;;;;;;;;;;5098092;28;20188;-77
2022/05/17 12:10:42;;;;;;;2.58;2.38;;;;;;;;;;5102918;28;20191;-77
2022/05/17 12:13:12;;;;;;;2.55;2.17;;;;;;;;;;5105367;28;20191;-76
2022/05/17 12:15:47;;;;;;;2.67;1.85;;;;;;;;;;5100163;28;20185;-76
2022/05/17 12:18:21;;;;;;;2.28;2.08;;;;;;;;;;5103674;28;20257;-77
2022/05/17 12:21:05;;;;;;;3.80;2.17;;;;;;;;;;5106607;28;20220;-77
2022/05/17 12:23:34;;;;;;;5.45;2.38;;;;;;;;;;5108801;28;20172;-77
2022/05/17 12:26:22;;;;;;;3.38;2.35;;;;;;;;;;5105744;28;20211;-76
2022/05/17 12:28:53;;;;;;;3.28;2.63;;;;;;;;;;5104230;28;20246;-77
2022/05/17 12:31:25;;;;;;;3.65;2.47;;;;;;;;;;5099207;28;20169;-77
2022/05/17 12:33:52;;;;;;;4.38;2.38;;;;;;;;;;5104101;28;20202;-77
2022/05/17 12:36:19;;;;;;;2.40;2.13;;;;;;;;;;5096011;28;20169;-76
2022/05/17 12:44:26;;;;;;;26.92;5.03;;;;;;;;;;5098129;28;20207;-77
2022/05/17 12:46:52;;;;;;;4.82;2.63;;;;;;;;;;5098766;28;20232;-77
2022/05/17 12:49:24;;;;;;;2.42;2.03;;;;;;;;;;5091195;28;20173;-76
2022/05/17 12:51:51;;;;;;;6.05;2.35;;;;;;;;;;5103552;28;20172;-77
2022/05/17 12:54:20;;;;;;;2.83;2.60;;;;;;;;;;5103823;28;20177;-76
2022/05/17 12:56:47;;;;;;;2.85;2.38;;;;;;;;;;5094796;28;20169;-76
2022/05/17 12:59:13;;;;;;;3.95;2.10;;;;;;;;;;5087716;28;20177;-76
2022/05/17 13:01:43;;;;;;;3.85;2.55;;;;;;;;;;5091198;28;20214;-76
2022/05/17 13:04:10;;;;;;;4.07;2.75;;;;;;;;;;5088546;28;20218;-77
2022/05/17 13:06:37;;;;;;;4.00;2.20;;;;;;;;;;5084553;28;20181;-76
2022/05/17 13:09:03;;;;;;;2.60;2.22;;;;;;;;;;5087363;28;20279;-76
2022/05/17 13:11:28;;;;;;;6.85;3.28;;;;;;;;;;5087910;28;20260;-77
2022/05/17 13:14:05;;;;;;;3.63;2.20;;;;;;;;;;5080163;28;20245;-77
2022/05/17 13:16:33;;;;;;;3.45;2.08;;;;;;;;;;5086260;28;20184;-76
2022/05/17 13:19:00;;;;;;;2.72;1.90;;;;;;;;;;5085115;28;20177;-77
2022/05/17 13:21:30;;;;;;;2.35;2.15;;;;;;;;;;5086563;28;20187;-77
2022/05/17 13:23:57;;;;;;;2.42;2.22;;;;;;;;;;5085936;28;20181;-78
2022/05/17 13:26:28;;;;;;;2.60;2.40;;;;;;;;;;5085161;28;20193;-78
2022/05/17 13:28:53;;;;;;;2.58;2.05;;;;;;;;;;5086112;28;20240;-77
2022/05/17 13:31:21;;;;;;;3.05;2.58;;;;;;;;;;5081423;28;20238;-78
2022/05/17 13:33:55;;;;;;;2.88;2.65;;;;;;;;;;5084413;28;20196;-78
2022/05/17 13:36:31;;;;;;;2.65;2.38;;;;;;;;;;5087676;28;20181;-78
2022/05/17 13:38:56;;;;;;;3.10;2.38;;;;;;;;;;5081236;28;20181;-78
2022/05/17 13:41:27;;;;;;;5.88;2.40;;;;;;;;;;5087435;28;20178;-78
2022/05/17 13:43:55;;;;;;;3.03;2.72;;;;;;;;;;5085373;28;20207;-78
2022/05/17 13:46:22;;;;;;;3.65;2.58;;;;;;;;;;5079335;28;20234;-78
2022/05/17 13:48:48;;;;;;;3.15;2.63;;;;;;;;;;5085178;28;20375;-77
2022/05/17 13:51:19;;;;;;;2.53;2.33;;;;;;;;;;5084551;28;20311;-78
2022/05/17 13:53:49;;;;;;;3.00;2.70;;;;;;;;;;5083649;28;20169;-78
2022/05/17 13:56:14;;;;;;;3.25;2.33;;;;;;;;;;5089553;28;20264;-78
2022/05/17 13:58:44;;;;;;;3.33;2.00;;;;;;;;;;5078287;28;20319;-78
2022/05/17 14:01:21;;;;;;;3.17;2.17;;;;;;;;;;5081475;28;20387;-78
2022/05/17 14:04:03;;;;;;;4.72;2.53;;;;;;;;;;5085280;28;20264;-78
2022/05/17 14:06:39;;;;;;;3.40;2.10;;;;;;;;;;5078785;28;20200;-77
2022/05/17 14:11:54;;;;;;;5.95;1.90;;;;;;;;;;5078635;28;20192;-78
2022/05/17 14:14:21;;;;;;;2.42;2.08;;;;;;;;;;5089028;28;20207;-77
2022/05/17 14:16:47;;;;;;;3.33;1.83;;;;;;;;;;5085209;28;20173;-78
2022/05/17 14:19:17;;;;;;;3.60;2.30;;;;;;;;;;5086832;28;20181;-77
2022/05/17 14:21:44;;;;;;;14.13;13.35;;;;;;;;;;5079185;28;20180;-77
2022/05/17 14:24:09;;;;;;;2.38;2.00;;;;;;;;;;5086474;28;20197;-78
2022/05/17 14:26:35;;;;;;;3.17;2.88;;;;;;;;;;5086186;28;20281;-78
2022/05/17 14:29:00;;;;;;;2.13;1.90;;;;;;;;;;5084391;28;20177;-76
2022/05/17 14:31:27;;;;;;;2.08;1.95;;;;;;;;;;5080195;28;20165;-78
2022/05/17 14:33:54;;;;;;;2.58;2.03;;;;;;;;;;5084396;28;20329;-78
2022/05/17 14:36:21;;;;;;;2.88;1.95;;;;;;;;;;5076993;28;20264;-77
2022/05/17 14:38:46;;;;;;;3.85;2.88;;;;;;;;;;5080525;28;20173;-78
2022/05/17 14:41:14;;;;;;;8.07;2.10;;;;;;;;;;5081063;28;20445;-78
2022/05/17 14:43:43;;;;;;;3.65;2.45;;;;;;;;;;5085438;28;20234;-78
2022/05/17 14:46:09;;;;;;;6.10;2.58;;;;;;;;;;5079631;28;20240;-77
2022/05/17 14:48:34;;;;;;;2.70;2.50;;;;;;;;;;5085218;28;20261;-77
2022/05/17 14:51:01;;;;;;;2.30;2.10;;;;;;;;;;5086807;28;20259;-78
2022/05/17 14:53:27;;;;;;;3.33;2.53;;;;;;;;;;5087112;28;20165;-77
2022/05/17 14:55:52;;;;;;;2.40;1.90;;;;;;;;;;5086126;28;20211;-78
2022/05/17 14:58:17;;;;;;;2.42;2.13;;;;;;;;;;5084883;28;20173;-78
2022/05/17 15:00:43;;;;;;;2.50;1.92;;;;;;;;;;5083778;28;20211;-78
2022/05/17 15:03:15;;;;;;;3.08;2.25;;;;;;;;;;5078299;28;20234;-78
2022/05/17 15:05:41;;;;;;;3.90;2.20;;;;;;;;;;5082479;28;20607;-77
2022/05/17 15:08:09;;;;;;;4.80;2.58;;;;;;;;;;5084227;28;20173;-77